Time;durP1;ratioP1;P1;durP2;ratioP2;P2;SDS_P1;SDS_P2;PMS_P1;PMS_P2;Temp;Humidity;BMP_temperature;BMP_pressure;BME280_temperature;BME280_humidity;BME280_pressure;Samples;Min_cycle;Max_cycle;Signal;HPM_P1;HPM_P2
2023/04/19 00:01:48;;;;;;;9.93;8.93;;;;;;;14.97;52.57;99299.53;7003524;28;20226;-82
2023/04/19 00:05:10;;;;;;;11.23;9.57;;;;;;;15.39;51.61;99305.06;7003616;28;20305;-82
2023/04/19 00:08:33;;;;;;;12.20;9.90;;;;;;;15.70;50.78;99312.28;7003963;28;20207;-82
2023/04/19 00:11:54;;;;;;;11.93;9.83;;;;;;;15.46;51.29;99302.28;6989294;28;20333;-83
2023/04/19 00:15:16;;;;;;;11.40;9.83;;;;;;;15.63;51.36;99308.81;6996483;28;20759;-82
2023/04/19 00:18:39;;;;;;;10.90;9.80;;;;;;;15.24;51.75;99299.13;6977201;28;20330;-82
2023/04/19 00:22:01;;;;;;;10.63;9.37;;;;;;;15.35;51.54;99309.31;6977069;28;20246;-82
2023/04/19 00:25:22;;;;;;;11.73;9.57;;;;;;;15.59;51.10;99296.72;6979002;28;20272;-83
2023/04/19 00:28:44;;;;;;;16.43;10.00;;;;;;;15.48;51.20;99271.13;7005311;28;20203;-83
2023/04/19 00:32:05;;;;;;;12.83;9.43;;;;;;;15.90;50.23;99291.97;7019742;28;20260;-82
2023/04/19 00:35:28;;;;;;;10.17;9.07;;;;;;;15.23;49.98;99218.66;7019547;28;20351;-82
2023/04/19 00:38:50;;;;;;;12.77;9.83;;;;;;;15.92;50.22;99292.56;7008687;28;20298;-82
2023/04/19 00:42:11;;;;;;;12.73;10.43;;;;;;;15.48;50.33;99259.41;6989484;28;20341;-82
2023/04/19 00:45:34;;;;;;;11.40;10.10;;;;;;;15.62;50.31;99293.56;6981179;28;20810;-81
2023/04/19 00:48:56;;;;;;;14.60;10.17;;;;;;;14.74;52.99;99281.16;6980882;28;20265;-82
2023/04/19 00:52:19;;;;;;;13.60;10.27;;;;;;;14.84;53.30;99286.94;6979964;28;20285;-82
2023/04/19 00:55:40;;;;;;;15.43;10.50;;;;;;;14.89;52.56;99288.97;6981191;28;20233;-82
2023/04/19 00:59:02;;;;;;;12.50;10.67;;;;;;;15.16;51.92;99276.84;6980970;28;20290;-82
2023/04/19 01:02:24;;;;;;;13.27;10.70;;;;;;;15.22;51.82;99274.03;6980469;28;20270;-81
2023/04/19 01:05:45;;;;;;;12.83;10.93;;;;;;;15.19;51.51;99289.97;6981611;28;20389;-82
2023/04/19 01:09:08;;;;;;;12.00;10.40;;;;;;;15.22;52.03;99286.81;6981943;28;20295;-81
2023/04/19 01:12:30;;;;;;;13.70;10.27;;;;;;;15.57;51.07;99264.31;7000144;28;20215;-82
2023/04/19 01:15:51;;;;;;;13.87;11.33;;;;;;;15.17;51.63;99254.88;7006335;28;20286;-82
2023/04/19 01:19:13;;;;;;;13.87;10.73;;;;;;;15.34;51.68;99266.84;7005814;28;20745;-82
2023/04/19 01:22:36;;;;;;;12.30;10.00;;;;;;;15.56;51.15;99262.66;7004739;28;20205;-82
2023/04/19 01:26:00;;;;;;;13.80;11.17;;;;;;;15.64;50.78;99254.19;7005655;28;20230;-82
2023/04/19 01:29:21;;;;;;;11.97;10.23;;;;;;;15.62;50.86;99247.34;7005920;28;20209;-82
2023/04/19 01:32:43;;;;;;;11.97;10.33;;;;;;;15.13;51.70;99241.97;7004821;28;20227;-82
2023/04/19 01:36:05;;;;;;;13.10;10.83;;;;;;;15.38;51.46;99254.50;7005373;28;20212;-82
2023/04/19 01:39:28;;;;;;;11.97;10.70;;;;;;;15.46;51.42;99237.88;7005019;28;20212;-82
2023/04/19 01:42:50;;;;;;;12.57;9.97;;;;;;;15.62;50.57;99229.13;7004265;28;20264;-82
2023/04/19 01:46:11;;;;;;;15.50;11.00;;;;;;;15.34;51.48;99247.84;7004793;28;20834;-82
2023/04/19 01:49:33;;;;;;;15.07;11.93;;;;;;;15.62;51.28;99250.06;7005015;28;20688;-82
2023/04/19 01:52:54;;;;;;;13.73;10.93;;;;;;;15.53;51.36;99229.66;7004132;28;20310;-82
2023/04/19 01:56:17;;;;;;;14.43;11.53;;;;;;;15.37;51.82;99227.53;7004602;28;20351;-82
2023/04/19 01:59:38;;;;;;;12.77;11.47;;;;;;;15.12;52.75;99240.31;7004388;28;20695;-82
2023/04/19 02:03:00;;;;;;;13.57;11.17;;;;;;;15.47;51.65;99236.84;7003516;28;20416;-82
2023/04/19 02:06:21;;;;;;;13.40;11.57;;;;;;;15.59;51.13;99231.47;7004269;28;20316;-81
2023/04/19 02:09:43;;;;;;;14.37;10.70;;;;;;;15.48;51.39;99221.34;7004323;28;20292;-82
2023/04/19 02:13:06;;;;;;;12.47;10.50;;;;;;;15.50;50.90;99232.81;7003660;28;20379;-81
2023/04/19 02:16:27;;;;;;;13.77;11.23;;;;;;;15.29;51.61;99220.47;6991875;28;20291;-81
2023/04/19 02:19:49;;;;;;;12.27;10.60;;;;;;;15.53;51.49;99216.09;6977036;28;20883;-82
2023/04/19 02:23:10;;;;;;;12.47;10.70;;;;;;;15.68;50.43;99206.47;6976808;28;20309;-82
2023/04/19 02:26:32;;;;;;;14.50;11.63;;;;;;;15.50;51.24;99208.38;6977168;28;20319;-82
2023/04/19 02:29:55;;;;;;;14.20;11.80;;;;;;;15.42;51.74;99205.97;6977032;28;20807;-82
2023/04/19 02:33:16;;;;;;;13.37;11.70;;;;;;;15.37;51.26;99201.22;6976391;28;20220;-81
2023/04/19 02:36:38;;;;;;;14.07;12.10;;;;;;;15.32;51.60;99211.91;6976624;28;20263;-81
2023/04/19 02:39:59;;;;;;;14.63;12.40;;;;;;;15.45;51.82;99206.34;6977106;28;20301;-81
2023/04/19 02:43:21;;;;;;;13.20;11.80;;;;;;;15.44;51.44;99169.34;6976867;28;20369;-80
2023/04/19 02:46:48;;;;;;;14.00;11.20;;;;;;;15.59;50.83;99191.56;6977206;28;20369;-82
2023/04/19 02:50:10;;;;;;;13.00;11.40;;;;;;;15.64;50.60;99188.97;6977955;28;20286;-81
2023/04/19 02:53:32;;;;;;;12.23;10.93;;;;;;;15.47;51.05;99177.06;6978348;28;20315;-82
2023/04/19 02:56:53;;;;;;;14.07;12.20;;;;;;;15.40;51.39;99195.31;6977883;28;20262;-81
2023/04/19 03:00:16;;;;;;;15.97;12.07;;;;;;;15.30;51.50;99186.84;6978353;28;20250;-82
2023/04/19 03:03:39;;;;;;;14.13;11.80;;;;;;;14.98;52.63;99198.06;6984342;28;20230;-82
2023/04/19 03:07:00;;;;;;;15.20;11.73;;;;;;;15.13;52.23;99184.94;6988796;28;20333;-82
2023/04/19 03:10:22;;;;;;;14.33;12.10;;;;;;;15.13;52.03;99196.63;6987645;28;20237;-82
2023/04/19 03:13:43;;;;;;;14.30;12.13;;;;;;;14.65;53.72;99200.22;6982647;28;20235;-82
2023/04/19 03:17:05;;;;;;;17.30;11.87;;;;;;;14.93;52.74;99176.16;6976382;28;20936;-82
2023/04/19 03:20:27;;;;;;;18.37;12.57;;;;;;;15.13;51.96;99188.50;6975076;28;20303;-83
2023/04/19 03:23:49;;;;;;;14.00;12.43;;;;;;;14.91;53.32;99195.38;6992899;28;20324;-82
2023/04/19 03:27:10;;;;;;;14.43;12.70;;;;;;;14.61;53.85;99198.97;7002939;28;20794;-82
2023/04/19 03:30:32;;;;;;;14.77;12.70;;;;;;;14.74;53.33;99188.03;7003057;28;20301;-83
2023/04/19 03:33:53;;;;;;;16.13;12.57;;;;;;;14.59;53.52;99191.09;7002341;28;20239;-82
2023/04/19 03:37:16;;;;;;;16.77;12.50;;;;;;;14.49;53.78;99184.47;7002605;28;20332;-82
2023/04/19 03:40:38;;;;;;;14.27;12.77;;;;;;;14.53;53.68;99170.25;7002619;28;20299;-82
2023/04/19 03:44:00;;;;;;;15.77;13.17;;;;;;;14.77;52.27;99153.13;7001679;28;20268;-82
2023/04/19 03:47:21;;;;;;;15.60;12.97;;;;;;;14.26;54.60;99176.94;7001544;28;20278;-82
2023/04/19 03:50:43;;;;;;;15.53;12.77;;;;;;;14.10;54.72;99163.84;7001482;28;20286;-83
2023/04/19 03:54:05;;;;;;;14.87;12.80;;;;;;;14.60;53.09;99164.75;7001483;28;20310;-82
2023/04/19 03:57:27;;;;;;;14.20;12.43;;;;;;;14.22;53.33;99115.22;7001601;28;20296;-82
2023/04/19 04:00:48;;;;;;;16.13;12.53;;;;;;;14.55;53.32;99170.88;7000891;28;20224;-82
2023/04/19 04:04:10;;;;;;;17.10;14.43;;;;;;;14.44;53.78;99165.31;7001384;28;20696;-82
2023/04/19 04:07:32;;;;;;;16.23;13.47;;;;;;;14.25;54.42;99182.56;7005197;28;20223;-82
2023/04/19 04:10:55;;;;;;;15.93;13.23;;;;;;;14.20;53.69;99171.53;7009235;28;20201;-82
2023/04/19 04:14:17;;;;;;;17.93;13.70;;;;;;;14.15;54.03;99174.06;7007619;28;20253;-82
2023/04/19 04:17:38;;;;;;;16.13;12.87;;;;;;;13.67;54.92;99167.44;7002964;28;20290;-82
2023/04/19 04:21:00;;;;;;;17.17;14.00;;;;;;;13.94;54.70;99158.13;7008794;28;20235;-82
2023/04/19 04:24:21;;;;;;;15.70;12.83;;;;;;;14.10;54.11;99177.41;7008243;28;20602;-82
2023/04/19 04:27:44;;;;;;;16.70;14.63;;;;;;;13.74;55.19;99176.41;6984089;28;20221;-81
2023/04/19 04:31:06;;;;;;;19.47;15.90;;;;;;;13.81;54.36;99174.47;6981372;28;20211;-82
2023/04/19 04:34:27;;;;;;;16.63;14.63;;;;;;;13.71;55.19;99172.25;6980605;28;20309;-82
2023/04/19 04:37:49;;;;;;;18.10;14.90;;;;;;;13.75;55.32;99181.56;6981347;28;20683;-82
2023/04/19 04:41:11;;;;;;;17.90;14.27;;;;;;;13.35;56.30;99171.13;6981145;28;20431;-81
2023/04/19 04:44:34;;;;;;;17.10;15.30;;;;;;;13.28;56.40;99192.00;6980887;28;20231;-82
2023/04/19 04:47:56;;;;;;;17.93;14.70;;;;;;;13.16;56.56;99172.03;6980518;28;20234;-82
2023/04/19 04:51:17;;;;;;;16.80;13.90;;;;;;;13.38;55.95;99189.66;6980569;28;20291;-82
2023/04/19 04:54:39;;;;;;;18.63;15.03;;;;;;;13.66;55.73;99192.88;6979616;28;20227;-82
2023/04/19 04:58:00;;;;;;;19.80;14.97;;;;;;;13.60;55.42;99194.59;6984269;28;20206;-82
2023/04/19 05:01:23;;;;;;;18.27;14.77;;;;;;;13.04;55.54;99179.16;6981982;28;20219;-82
2023/04/19 05:04:45;;;;;;;17.70;13.50;;;;;;;13.04;55.31;99174.53;6984022;28;20249;-81
2023/04/19 05:08:06;;;;;;;19.10;15.63;;;;;;;12.85;56.70;99207.88;7010247;28;20294;-81
2023/04/19 05:11:28;;;;;;;20.27;15.50;;;;;;;12.28;58.72;99163.56;7007734;28;20296;-82
2023/04/19 05:14:49;;;;;;;19.40;15.00;;;;;;;13.29;57.01;99193.66;7012229;28;20214;-82
2023/04/19 05:18:12;;;;;;;21.07;15.13;;;;;;;13.50;56.43;99191.50;7006706;28;20972;-81
2023/04/19 05:21:34;;;;;;;19.60;14.80;;;;;;;13.41;56.44;99192.78;7006947;28;20821;-81
2023/04/19 05:24:55;;;;;;;14.47;12.90;;;;;;;13.73;56.43;99191.81;7006736;28;20238;-81
2023/04/19 05:28:17;;;;;;;23.97;21.47;;;;;;;14.06;54.76;99184.34;7006408;28;20307;-82
2023/04/19 05:31:38;;;;;;;17.67;15.13;;;;;;;13.76;54.52;99109.25;7006975;28;20301;-82
2023/04/19 05:35:01;;;;;;;16.83;13.93;;;;;;;14.46;53.72;99203.91;7007167;28;20213;-85
2023/04/19 05:38:23;;;;;;;16.27;13.93;;;;;;;13.69;53.82;99128.25;7001118;28;20240;-81
2023/04/19 05:41:44;;;;;;;15.40;13.30;;;;;;;14.04;55.71;99205.41;6997080;28;20288;-81
2023/04/19 05:45:07;;;;;;;14.90;12.97;;;;;;;13.94;56.34;99187.97;6989428;28;20225;-80
2023/04/19 05:48:29;;;;;;;18.83;14.23;;;;;;;14.45;55.06;99203.06;7001154;28;20229;-80
2023/04/19 05:51:53;;;;;;;16.40;13.53;;;;;;;14.58;54.59;99207.59;7002128;28;20291;-80
2023/04/19 05:55:14;;;;;;;18.20;14.57;;;;;;;14.62;54.28;99165.41;7002316;28;20274;-80
2023/04/19 05:58:36;;;;;;;18.47;14.43;;;;;;;15.07;53.24;99204.84;7005601;28;20284;-80
2023/04/19 06:01:57;;;;;;;21.20;16.80;;;;;;;15.22;52.81;99200.69;7001686;28;20207;-82
2023/04/19 06:05:19;;;;;;;21.37;16.17;;;;;;;15.01;53.84;99197.59;7003903;28;20220;-79
2023/04/19 06:08:42;;;;;;;15.53;13.90;;;;;;;14.86;53.93;99188.97;7005403;28;20299;-80
2023/04/19 06:12:04;;;;;;;19.87;14.43;;;;;;;15.16;52.92;99193.44;6989274;28;20269;-81
2023/04/19 06:15:25;;;;;;;18.03;14.33;;;;;;;15.07;53.48;99202.97;6978234;28;20227;-80
2023/04/19 06:18:47;;;;;;;16.87;15.07;;;;;;;15.02;53.17;99177.53;6978504;28;20209;-81
2023/04/19 06:22:08;;;;;;;16.63;13.50;;;;;;;15.03;52.64;99199.03;6979756;28;20301;-81
2023/04/19 06:25:31;;;;;;;15.37;13.63;;;;;;;15.02;52.90;99208.22;6988008;28;20746;-81
2023/04/19 06:28:53;;;;;;;17.07;14.13;;;;;;;14.91;52.51;99184.53;7007428;28;20276;-80
2023/04/19 06:32:14;;;;;;;15.53;13.20;;;;;;;15.29;51.90;99195.22;7006473;28;20701;-81
2023/04/19 06:35:36;;;;;;;15.17;12.80;;;;;;;15.47;51.96;99203.41;7004850;28;20303;-81
2023/04/19 06:38:57;;;;;;;15.07;12.70;;;;;;;14.61;53.29;99209.84;6980082;28;20227;-81
2023/04/19 06:42:20;;;;;;;14.27;12.17;;;;;;;15.23;51.49;99187.97;6978455;28;20206;-80
2023/04/19 06:45:42;;;;;;;17.57;12.77;;;;;;;15.28;51.79;99199.81;6990508;28;20264;-80
2023/04/19 06:49:03;;;;;;;13.97;12.30;;;;;;;15.74;49.35;99199.31;6982982;28;20272;-80
2023/04/19 06:52:25;;;;;;;12.77;11.23;;;;;;;15.60;50.17;99201.38;7006312;28;20212;-81
2023/04/19 06:55:46;;;;;;;13.60;10.57;;;;;;;16.12;48.71;99181.63;7006265;28;20275;-81
2023/04/19 06:59:09;;;;;;;12.80;10.73;;;;;;;16.35;48.61;99181.69;6986968;28;20227;-82
2023/04/19 07:02:31;;;;;;;12.67;10.93;;;;;;;16.28;47.81;99123.00;7013907;28;20211;-81
2023/04/19 07:05:55;;;;;;;12.17;10.90;;;;;;;16.73;47.69;99184.03;7005024;28;20602;-81
2023/04/19 07:09:16;;;;;;;11.03;9.87;;;;;;;16.67;46.73;99182.25;7003551;28;20269;-81
2023/04/19 07:12:38;;;;;;;10.87;9.60;;;;;;;17.01;46.54;99178.72;7003371;28;20212;-82
2023/04/19 07:16:04;;;;;;;10.73;9.10;;;;;;;17.17;46.01;99178.03;6976451;28;20298;-81
2023/04/19 07:19:27;;;;;;;14.00;9.03;;;;;;;15.82;47.77;99175.34;6975705;28;20189;-82
2023/04/19 07:22:48;;;;;;;9.97;8.87;;;;;;;16.34;47.74;99184.66;6975762;28;20225;-83
2023/04/19 07:26:10;;;;;;;10.13;9.00;;;;;;;16.37;47.00;99148.78;6975850;28;20336;-82
2023/04/19 07:29:31;;;;;;;13.80;9.23;;;;;;;16.73;45.76;99170.41;6998753;28;20339;-81
2023/04/19 07:32:54;;;;;;;9.97;8.83;;;;;;;16.93;45.76;99168.19;7004527;28;20633;-81
2023/04/19 07:36:16;;;;;;;9.70;8.70;;;;;;;16.70;45.41;99144.50;7004773;28;20291;-81
2023/04/19 07:39:37;;;;;;;9.83;8.83;;;;;;;16.44;46.08;99149.53;7004218;28;20298;-82
2023/04/19 07:42:59;;;;;;;9.30;8.33;;;;;;;16.09;46.49;99170.38;6981696;28;20780;-83
2023/04/19 07:46:20;;;;;;;10.23;9.03;;;;;;;16.19;46.11;99125.22;6984477;28;20666;-84
2023/04/19 07:49:43;;;;;;;10.10;9.00;;;;;;;16.27;47.05;99170.31;6977480;28;20281;-80
2023/04/19 07:53:05;;;;;;;10.00;8.50;;;;;;;16.37;46.88;99152.38;6975579;28;20368;-82
2023/04/19 07:56:26;;;;;;;12.63;8.97;;;;;;;16.65;45.84;99165.34;6976480;28;20277;-83
2023/04/19 07:59:48;;;;;;;9.00;8.10;;;;;;;16.40;45.79;99165.53;6976741;28;20292;-82
2023/04/19 08:03:09;;;;;;;9.40;7.63;;;;;;;16.59;45.28;99155.38;6982732;28;20228;-82
2023/04/19 08:06:32;;;;;;;9.30;7.77;;;;;;;17.21;43.96;99139.16;7001348;28;20221;-81
2023/04/19 08:09:54;;;;;;;9.50;7.77;;;;;;;16.83;44.70;99152.44;6994024;28;20379;-82
2023/04/19 08:13:16;;;;;;;8.83;7.63;;;;;;;16.59;45.65;99155.38;7002617;28;20224;-82
2023/04/19 08:16:37;;;;;;;11.33;7.97;;;;;;;16.69;45.96;99152.91;7002928;28;20243;-82
2023/04/19 08:19:58;;;;;;;9.83;7.97;;;;;;;16.84;45.20;99159.56;7004157;28;20225;-82
2023/04/19 08:23:21;;;;;;;9.50;8.50;;;;;;;16.33;45.33;99158.50;7002494;28;20431;-82
2023/04/19 08:26:43;;;;;;;9.07;8.00;;;;;;;15.57;47.16;99109.41;6997186;28;20370;-82
2023/04/19 08:30:06;;;;;;;11.33;8.13;;;;;;;15.78;47.07;99132.53;6988718;28;20228;-82
2023/04/19 08:33:28;;;;;;;10.33;7.63;;;;;;;15.32;47.83;99164.84;6974702;28;20226;-82
2023/04/19 08:36:50;;;;;;;9.83;8.10;;;;;;;15.89;46.77;99156.22;6975835;28;20303;-82
2023/04/19 08:40:13;;;;;;;8.87;7.97;;;;;;;15.29;46.70;99147.13;6975028;28;20248;-81
2023/04/19 08:43:35;;;;;;;9.37;8.17;;;;;;;16.65;44.66;99138.09;6986957;28;20228;-82
2023/04/19 08:46:57;;;;;;;11.07;7.93;;;;;;;17.64;43.40;99147.72;7004312;28;20298;-82
2023/04/19 08:50:21;;;;;;;9.20;8.00;;;;;;;18.25;41.42;99133.34;7003619;28;20364;-82
2023/04/19 08:53:43;;;;;;;10.23;8.37;;;;;;;16.23;44.29;99122.88;7004391;28;20226;-82
2023/04/19 08:57:07;;;;;;;10.87;8.90;;;;;;;17.14;44.41;99122.09;7008005;28;20273;-82
2023/04/19 09:00:29;;;;;;;9.33;8.40;;;;;;;17.68;42.09;99075.28;7007538;28;20297;-82
2023/04/19 09:03:50;;;;;;;9.73;8.33;;;;;;;17.73;42.34;99126.34;7007714;28;20222;-82
2023/04/19 09:07:22;;;;;;;8.93;8.03;;;;;;;17.75;43.41;99113.31;6986010;28;20207;-84
2023/04/19 09:10:53;;;;;;;8.63;7.77;;;;;;;17.28;43.32;99112.59;6980556;28;20314;-82
2023/04/19 09:14:17;;;;;;;8.40;7.50;;;;;;;16.37;44.98;99103.38;6980573;28;20245;-81
2023/04/19 09:17:40;;;;;;;7.83;7.03;;;;;;;17.12;43.30;99115.25;6980571;28;20216;-82
2023/04/19 09:21:01;;;;;;;7.77;7.00;;;;;;;17.64;42.44;99119.66;6980531;28;20196;-82
2023/04/19 09:24:38;;;;;;;9.10;8.20;;;;;;;17.30;42.47;99109.63;7006468;28;20299;-82
2023/04/19 09:28:09;;;;;;;8.73;7.83;;;;;;;16.89;44.12;99105.22;7007720;28;20217;-82
2023/04/19 09:31:34;;;;;;;8.60;7.77;;;;;;;17.74;42.07;99115.22;7002501;28;20215;-82
2023/04/19 09:34:57;;;;;;;8.70;7.90;;;;;;;17.35;42.85;99079.75;6979770;28;20242;-81
2023/04/19 09:38:19;;;;;;;8.17;7.37;;;;;;;17.05;42.16;99065.50;6980894;28;20283;-82
2023/04/19 09:41:51;;;;;;;8.20;7.37;;;;;;;17.09;43.36;99093.91;6981146;28;20290;-81
2023/04/19 09:45:12;;;;;;;8.50;7.60;;;;;;;17.94;42.59;99071.13;6980768;28;20236;-82
2023/04/19 09:48:36;;;;;;;8.90;7.20;;;;;;;17.88;41.73;99033.91;6980618;28;20754;-82
2023/04/19 09:51:57;;;;;;;8.07;7.27;;;;;;;18.65;40.26;99085.75;6979684;28;20840;-79
2023/04/19 09:55:19;;;;;;;9.50;7.80;;;;;;;17.37;43.10;99026.66;6979395;28;20309;-79
2023/04/19 09:58:41;;;;;;;12.83;8.60;;;;;;;17.65;41.84;99075.78;6981082;28;20288;-82
2023/04/19 10:02:03;;;;;;;8.63;7.73;;;;;;;17.22;42.78;99053.59;6980526;28;20737;-85
2023/04/19 10:05:25;;;;;;;150.40;101.40;;;;;;;17.88;43.77;99063.91;6982962;28;20226;-84
2023/04/19 10:08:49;;;;;;;12.77;10.80;;;;;;;18.13;42.44;99056.16;6983350;28;20288;-80
2023/04/19 10:12:11;;;;;;;9.57;7.70;;;;;;;18.36;41.83;99066.97;6982913;28;20214;-84
2023/04/19 10:15:33;;;;;;;8.70;7.80;;;;;;;18.06;41.85;99066.44;6993894;28;20234;-81
2023/04/19 10:18:55;;;;;;;8.50;7.63;;;;;;;17.84;42.86;99058.13;6979448;28;20272;-81
2023/04/19 10:22:17;;;;;;;10.07;8.57;;;;;;;17.60;43.83;99029.31;6995911;28;20674;-81
2023/04/19 10:25:39;;;;;;;9.53;8.47;;;;;;;18.09;42.42;99065.91;7005993;28;20298;-81
2023/04/19 10:29:01;;;;;;;9.03;7.80;;;;;;;18.16;42.62;99050.22;7002449;28;20568;-81
2023/04/19 10:32:23;;;;;;;9.33;8.27;;;;;;;16.37;45.77;99059.84;6977948;28;20339;-80
2023/04/19 10:35:45;;;;;;;9.43;8.27;;;;;;;17.40;43.95;99044.47;6985232;28;20224;-81
2023/04/19 10:39:40;;;;;;;9.77;8.10;;;;;;;17.90;43.63;99048.13;7001917;28;20220;-82
2023/04/19 10:43:17;;;;;;;8.90;7.87;;;;;;;17.97;42.80;99040.59;7004544;28;20305;-80
2023/04/19 10:46:40;;;;;;;7.73;6.90;;;;;;;17.69;42.69;99036.03;7004856;28;20687;-81
2023/04/19 10:50:04;;;;;;;8.90;7.90;;;;;;;17.90;42.46;99040.78;7004595;28;20609;-81
2023/04/19 10:53:53;;;;;;;13.33;7.80;;;;;;;17.72;42.89;99045.63;7004543;28;20319;-82
2023/04/19 10:57:16;;;;;;;9.20;7.93;;;;;;;17.36;44.11;99032.34;6967335;28;20295;-81
2023/04/19 11:00:37;;;;;;;8.70;7.40;;;;;;;17.11;44.24;99023.69;7002835;28;20300;-82
2023/04/19 11:03:59;;;;;;;10.53;8.20;;;;;;;17.20;44.89;99033.94;6980391;28;20221;-80
2023/04/19 11:07:21;;;;;;;10.77;9.00;;;;;;;17.11;44.78;99012.78;6977513;28;20302;-80
2023/04/19 11:10:43;;;;;;;10.53;8.73;;;;;;;17.00;45.77;99022.66;7002802;28;20374;-81
2023/04/19 11:14:08;;;;;;;10.73;8.47;;;;;;;17.04;44.87;99007.44;7004309;28;20226;-82
2023/04/19 11:17:30;;;;;;;10.17;9.17;;;;;;;16.64;46.59;99022.09;7003563;28;20351;-81
2023/04/19 11:20:53;;;;;;;9.87;8.67;;;;;;;17.54;44.86;99007.66;7003961;28;20202;-81
2023/04/19 11:24:17;;;;;;;11.53;9.40;;;;;;;16.66;47.07;99017.25;6985835;28;20223;-81
2023/04/19 11:27:39;;;;;;;12.07;9.93;;;;;;;17.01;45.51;99015.28;7004143;28;20202;-81
2023/04/19 11:31:03;;;;;;;10.40;9.30;;;;;;;17.02;46.28;99014.22;6995829;28;20273;-81
2023/04/19 11:34:24;;;;;;;10.07;9.13;;;;;;;16.72;46.42;98970.00;6978527;28;20234;-82
2023/04/19 11:37:46;;;;;;;10.40;9.30;;;;;;;16.28;48.34;99016.88;6980713;28;20248;-82
2023/04/19 11:41:08;;;;;;;11.47;9.67;;;;;;;16.76;48.90;99012.03;6985439;28;20220;-80
2023/04/19 11:44:29;;;;;;;11.67;10.40;;;;;;;16.04;50.62;99016.03;6997883;28;20249;-80
2023/04/19 11:47:52;;;;;;;13.57;10.57;;;;;;;15.58;52.45;98922.69;7010963;28;20229;-81
2023/04/19 11:51:15;;;;;;;15.30;11.00;;;;;;;16.02;53.63;99011.88;7013250;28;20232;-81
2023/04/19 11:54:38;;;;;;;14.57;12.00;;;;;;;15.50;54.13;98988.25;7003793;28;20249;-80
2023/04/19 11:58:00;;;;;;;18.30;12.80;;;;;;;15.76;54.04;98994.09;7003646;28;20670;-80
2023/04/19 12:01:23;;;;;;;16.37;13.07;;;;;;;16.18;54.42;98989.44;6992979;28;20218;-82
2023/04/19 12:04:46;;;;;;;14.20;12.00;;;;;;;15.71;55.48;99009.47;6976629;28;20709;-81
2023/04/19 12:08:08;;;;;;;14.87;12.57;;;;;;;16.22;54.27;99002.31;6986600;28;20274;-80
2023/04/19 12:11:43;;;;;;;14.77;12.97;;;;;;;15.04;55.22;98983.44;6978264;28;20229;-80
2023/04/19 12:15:06;;;;;;;17.23;13.90;;;;;;;15.17;56.31;98979.72;6975834;28;20226;-80
2023/04/19 12:18:27;;;;;;;16.00;14.30;;;;;;;15.49;54.92;98983.88;6976077;28;20208;-81
2023/04/19 12:21:50;;;;;;;16.20;13.90;;;;;;;16.14;54.03;98989.06;6989729;28;20276;-80
2023/04/19 12:25:11;;;;;;;14.90;13.30;;;;;;;14.97;55.66;98996.28;7006886;28;20288;-82
2023/04/19 12:28:33;;;;;;;17.33;14.27;;;;;;;15.62;55.33;99002.72;6991864;28;20256;-81
2023/04/19 12:31:54;;;;;;;17.03;13.93;;;;;;;15.52;55.33;98969.84;7009182;28;20207;-80
2023/04/19 12:35:16;;;;;;;18.90;14.77;;;;;;;15.66;54.70;98993.03;7009066;28;20320;-80
2023/04/19 12:38:39;;;;;;;18.43;14.57;;;;;;;14.80;56.79;98987.09;6982767;28;20200;-81
2023/04/19 12:42:01;;;;;;;17.57;13.83;;;;;;;14.28;57.47;98976.81;6997066;28;20209;-80
2023/04/19 12:45:22;;;;;;;17.20;13.77;;;;;;;14.59;57.82;98998.41;7009032;28;20373;-80
2023/04/19 12:48:44;;;;;;;17.00;14.23;;;;;;;15.25;56.13;98991.09;7009285;28;20234;-80
2023/04/19 12:52:06;;;;;;;19.07;13.90;;;;;;;14.17;56.99;98991.09;7008735;28;20207;-80
2023/04/19 12:55:29;;;;;;;16.40;13.20;;;;;;;15.08;55.42;98991.94;7003700;28;20640;-80
2023/04/19 12:58:51;;;;;;;17.77;12.77;;;;;;;14.74;54.29;98957.34;7007309;28;20200;-80
2023/04/19 13:02:14;;;;;;;15.90;12.10;;;;;;;14.61;55.50;98993.59;7006280;28;20211;-80
2023/04/19 13:05:36;;;;;;;16.17;13.27;;;;;;;14.37;57.11;98989.06;7000381;28;20235;-80
2023/04/19 13:08:57;;;;;;;16.33;12.40;;;;;;;14.77;55.75;98995.69;6986355;28;20286;-83
2023/04/19 13:12:20;;;;;;;14.80;12.47;;;;;;;15.13;52.80;98975.81;7005175;28;20907;-80
2023/04/19 13:15:42;;;;;;;15.43;11.93;;;;;;;14.71;54.20;98974.06;6994395;28;20260;-80
2023/04/19 13:19:04;;;;;;;14.30;12.80;;;;;;;15.13;53.54;98938.63;6990485;28;20207;-82
2023/04/19 13:22:26;;;;;;;15.77;12.57;;;;;;;14.96;53.21;98967.47;7006585;28;20353;-80
2023/04/19 13:25:48;;;;;;;13.83;12.33;;;;;;;15.03;55.02;98951.06;7008500;28;20265;-79
2023/04/19 13:29:10;;;;;;;14.87;12.60;;;;;;;15.39;53.28;98959.19;7010642;28;20255;-80
2023/04/19 13:32:32;;;;;;;13.07;11.63;;;;;;;15.80;52.88;98954.50;7004947;28;20206;-80
2023/04/19 13:35:53;;;;;;;14.07;11.00;;;;;;;16.01;51.17;98939.53;7016864;28;20225;-78
2023/04/19 13:39:16;;;;;;;14.43;11.47;;;;;;;16.11;51.99;98943.28;7006107;28;20332;-80
2023/04/19 13:42:37;;;;;;;12.60;10.67;;;;;;;16.10;50.74;98957.16;7006320;28;20344;-80
2023/04/19 13:46:00;;;;;;;13.17;10.53;;;;;;;16.03;51.67;98942.81;7006209;28;20205;-80
2023/04/19 13:49:22;;;;;;;16.53;12.20;;;;;;;16.11;50.74;98928.88;7005986;28;20337;-80
2023/04/19 13:52:43;;;;;;;16.23;11.00;;;;;;;16.01;51.52;98929.47;7005757;28;20259;-81
2023/04/19 13:56:08;;;;;;;12.40;10.17;;;;;;;16.25;50.15;98919.41;7005319;28;20302;-80
2023/04/19 13:59:29;;;;;;;13.50;11.23;;;;;;;16.45;49.98;98928.88;6978117;28;20829;-80
2023/04/19 14:02:52;;;;;;;13.30;11.20;;;;;;;16.17;50.37;98917.06;6999570;28;20231;-80
2023/04/19 14:06:14;;;;;;;11.83;10.63;;;;;;;16.59;49.79;98918.53;7005331;28;20638;-80
2023/04/19 14:09:35;;;;;;;12.70;10.30;;;;;;;16.73;48.61;98911.75;7004898;28;20266;-80
2023/04/19 14:12:57;;;;;;;12.37;10.47;;;;;;;16.53;48.81;98879.53;7005075;28;20737;-80
2023/04/19 14:16:19;;;;;;;11.00;9.90;;;;;;;16.74;49.02;98897.91;7005527;28;20206;-80
2023/04/19 14:19:42;;;;;;;10.87;9.60;;;;;;;16.76;48.36;98865.00;7004963;28;20288;-80
2023/04/19 14:23:03;;;;;;;11.77;9.87;;;;;;;16.97;47.17;98864.28;7004977;28;20584;-79
2023/04/19 14:26:25;;;;;;;11.77;9.53;;;;;;;17.14;47.51;98886.94;7004952;28;21051;-79
2023/04/19 14:29:47;;;;;;;15.03;10.07;;;;;;;16.28;47.81;98872.69;7005086;28;20277;-80
2023/04/19 14:33:08;;;;;;;10.90;9.73;;;;;;;16.62;47.52;98858.16;7004915;28;20773;-82
2023/04/19 14:36:31;;;;;;;10.57;9.50;;;;;;;16.79;47.02;98818.19;7005122;28;20246;-85
2023/04/19 14:39:53;;;;;;;12.20;9.57;;;;;;;17.31;46.44;98860.53;7005269;28;20281;-85
2023/04/19 14:43:15;;;;;;;9.20;8.30;;;;;;;17.07;46.64;98883.56;7003903;28;20359;-79
2023/04/19 14:46:37;;;;;;;9.47;8.53;;;;;;;17.47;45.22;98873.41;6994586;28;20213;-79
2023/04/19 14:49:58;;;;;;;8.80;7.90;;;;;;;17.47;45.74;98876.13;6986909;28;20321;-79
2023/04/19 14:53:21;;;;;;;9.57;8.60;;;;;;;17.54;45.48;98866.72;6979811;28;20274;-80
2023/04/19 14:56:43;;;;;;;12.17;9.77;;;;;;;17.24;44.85;98817.13;6979620;28;20216;-79
2023/04/19 15:00:05;;;;;;;9.90;8.43;;;;;;;17.53;45.43;98864.22;6976060;28;20302;-79
2023/04/19 15:03:27;;;;;;;10.77;8.93;;;;;;;17.51;45.11;98863.66;6990712;28;20316;-78
2023/04/19 15:06:48;;;;;;;8.83;7.70;;;;;;;17.60;45.32;98860.28;7003637;28;20269;-79
2023/04/19 15:10:11;;;;;;;9.77;8.07;;;;;;;17.81;44.80;98862.22;7001715;28;20314;-79
2023/04/19 15:13:34;;;;;;;10.43;8.57;;;;;;;17.48;45.21;98848.63;7003070;28;20236;-79
2023/04/19 15:16:55;;;;;;;9.43;8.17;;;;;;;17.71;44.68;98858.53;7003296;28;20414;-79
2023/04/19 15:20:17;;;;;;;10.10;7.57;;;;;;;17.47;45.12;98848.88;7002670;28;20715;-79
2023/04/19 15:23:39;;;;;;;9.70;8.30;;;;;;;17.16;45.67;98813.97;6984322;28;20279;-78
2023/04/19 15:27:02;;;;;;;8.27;7.47;;;;;;;17.34;44.49;98816.47;6975935;28;20216;-79
2023/04/19 15:30:25;;;;;;;8.67;7.77;;;;;;;17.66;44.76;98852.97;6977856;28;20253;-84
2023/04/19 15:33:46;;;;;;;9.67;8.10;;;;;;;18.14;43.96;98848.53;7002931;28;20312;-79
2023/04/19 15:37:08;;;;;;;10.27;7.80;;;;;;;18.21;42.57;98848.34;7002556;28;20687;-78